Time;durP1;ratioP1;P1;durP2;ratioP2;P2;SDS_P1;SDS_P2;PMS_P1;PMS_P2;Temp;Humidity;BMP_temperature;BMP_pressure;BME280_temperature;BME280_humidity;BME280_pressure;Samples;Min_cycle;Max_cycle;Signal;HPM_P1;HPM_P2
2022/10/27 00:01:54;;;;;;;35.43;22.73;;;;;;;9.89;100.00;101232.45;3470472;84;26337;-94
2022/10/27 00:06:55;;;;;;;34.73;20.73;;;;;;;9.85;100.00;101241.17;3471942;84;98950;-95
2022/10/27 00:11:56;;;;;;;37.07;21.47;;;;;;;9.84;100.00;101249.20;3481057;84;33305;-94
2022/10/27 00:16:56;;;;;;;34.73;21.97;;;;;;;9.80;100.00;101254.36;3478218;83;98968;-95
2022/10/27 00:21:57;;;;;;;33.63;21.30;;;;;;;9.77;100.00;101246.25;3479640;84;33741;-95
2022/10/27 00:26:58;;;;;;;34.20;22.20;;;;;;;9.75;100.00;101251.30;3493740;83;99936;-94
2022/10/27 00:31:59;;;;;;;32.33;21.07;;;;;;;9.71;100.00;101255.12;3515333;82;33679;-94
2022/10/27 00:37:00;;;;;;;32.47;21.10;;;;;;;9.69;100.00;101258.77;3514267;82;99123;-95
2022/10/27 00:42:01;;;;;;;31.80;20.72;;;;;;;9.65;100.00;101267.52;3520261;82;33769;-95
2022/10/27 00:47:33;;;;;;;32.47;20.77;;;;;;;9.64;100.00;101269.45;3520156;82;99264;-94
2022/10/27 00:52:45;;;;;;;33.38;20.72;;;;;;;9.62;100.00;101269.02;3520906;83;31935;-94
2022/10/27 00:57:50;;;;;;;30.08;19.57;;;;;;;9.61;100.00;101274.30;3514278;82;99096;-95
2022/10/27 01:02:52;;;;;;;31.40;19.27;;;;;;;9.60;100.00;101272.67;3455320;84;25859;-94
2022/10/27 01:07:59;;;;;;;31.73;20.20;;;;;;;9.62;100.00;101280.01;3451034;84;99553;-94
2022/10/27 01:13:01;;;;;;;31.27;19.77;;;;;;;9.62;100.00;101275.89;3465218;84;33256;-95
2022/10/27 01:18:40;;;;;;;28.98;18.77;;;;;;;9.63;100.00;101276.11;3453978;84;99119;-94
2022/10/27 01:24:06;;;;;;;29.67;19.05;;;;;;;9.64;100.00;101280.45;3449728;84;32215;-94
2022/10/27 01:29:35;;;;;;;35.40;20.00;;;;;;;9.69;100.00;101285.70;3433235;84;99194;-94
2022/10/27 01:34:49;;;;;;;34.73;19.77;;;;;;;9.73;100.00;101292.66;3425520;85;33230;-93
2022/10/27 01:40:15;;;;;;;32.00;19.75;;;;;;;9.76;100.00;101290.02;3410106;84;98848;-94
2022/10/27 01:45:26;;;;;;;32.80;20.20;;;;;;;9.81;100.00;101304.10;3422165;85;33012;-93
2022/10/27 01:50:36;;;;;;;31.85;19.92;;;;;;;9.84;100.00;101300.07;3397730;85;98804;-94
2022/10/27 01:56:11;;;;;;;30.08;18.73;;;;;;;9.87;100.00;101302.69;3426387;85;32886;-94
2022/10/27 02:01:21;;;;;;;31.27;19.55;;;;;;;9.92;100.00;101299.70;3367258;85;33798;-94
2022/10/27 02:06:36;;;;;;;31.73;19.93;;;;;;;9.93;100.00;101290.29;3386145;85;98776;-94
2022/10/27 02:11:40;;;;;;;33.05;20.92;;;;;;;9.96;100.00;101299.20;3394166;85;33873;-94
2022/10/27 02:16:51;;;;;;;35.08;20.60;;;;;;;9.99;100.00;101291.63;3384024;85;99123;-94
2022/10/27 02:21:57;;;;;;;30.50;18.98;;;;;;;10.03;100.00;101296.06;3391358;85;33745;-94
2022/10/27 02:27:18;;;;;;;34.00;20.07;;;;;;;10.07;100.00;101299.75;3388579;85;99304;-94
2022/10/27 02:32:21;;;;;;;29.98;17.95;;;;;;;10.08;100.00;101299.19;3405522;84;33271;-94
2022/10/27 02:37:34;;;;;;;30.97;17.80;;;;;;;10.09;100.00;101297.44;3391586;85;99346;-95
2022/10/27 02:42:34;;;;;;;30.48;18.57;;;;;;;10.12;100.00;101305.55;3454275;84;33260;-95
2022/10/27 02:47:35;;;;;;;30.47;18.60;;;;;;;10.11;100.00;101303.96;3507519;83;98998;-94
2022/10/27 02:52:36;;;;;;;29.50;17.90;;;;;;;10.08;100.00;101306.84;3510911;82;31659;-95
2022/10/27 02:57:37;;;;;;;26.03;15.93;;;;;;;10.05;100.00;101302.06;3510487;83;99164;-94
2022/10/27 03:02:37;;;;;;;25.63;16.93;;;;;;;10.03;100.00;101304.91;3514321;82;31786;-94
2022/10/27 03:07:38;;;;;;;29.70;16.67;;;;;;;9.97;100.00;101305.72;3445555;84;99285;-94
2022/10/27 03:12:39;;;;;;;29.03;17.33;;;;;;;9.93;100.00;101312.29;3464408;84;32415;-95
2022/10/27 03:17:46;;;;;;;25.40;16.02;;;;;;;9.87;100.00;101319.97;3397599;85;99037;-95
2022/10/27 03:22:46;;;;;;;22.98;15.63;;;;;;;9.81;100.00;101328.25;3511570;83;32319;-94
2022/10/27 03:27:47;;;;;;;25.70;15.08;;;;;;;9.76;100.00;101332.62;3507636;83;99126;-94
2022/10/27 03:32:51;;;;;;;26.10;17.07;;;;;;;9.69;100.00;101343.42;3485988;83;35178;-93
2022/10/27 03:37:55;;;;;;;26.80;16.77;;;;;;;9.63;100.00;101344.00;3472476;83;99243;-95
2022/10/27 03:42:57;;;;;;;26.70;16.27;;;;;;;9.57;100.00;101346.77;3490670;83;33150;-95
2022/10/27 03:48:04;;;;;;;29.20;17.73;;;;;;;9.51;100.00;101353.10;3483595;83;98955;-95
2022/10/27 03:53:05;;;;;;;23.85;15.75;;;;;;;9.46;100.00;101362.95;3480400;83;30310;-94
2022/10/27 03:58:09;;;;;;;28.57;16.90;;;;;;;9.39;100.00;101359.19;3483160;83;99048;-95
2022/10/27 04:03:10;;;;;;;25.85;16.67;;;;;;;9.31;100.00;101354.61;3484980;83;30841;-94
2022/10/27 04:08:11;;;;;;;25.67;16.20;;;;;;;9.27;100.00;101359.22;3476587;83;98989;-94
2022/10/27 04:13:12;;;;;;;27.13;16.00;;;;;;;9.21;100.00;101358.64;3484825;83;36136;-94
2022/10/27 04:18:13;;;;;;;26.63;17.00;;;;;;;9.18;100.00;101361.28;3481299;83;99195;-94
2022/10/27 04:23:13;;;;;;;24.67;16.43;;;;;;;9.13;100.00;101374.67;3485679;83;35410;-95
2022/10/27 04:28:14;;;;;;;25.57;17.60;;;;;;;9.06;100.00;101367.56;3487648;82;98706;-96
2022/10/27 04:33:15;;;;;;;25.20;16.10;;;;;;;9.01;100.00;101368.38;3516001;82;34888;-94
2022/10/27 04:38:16;;;;;;;29.13;15.80;;;;;;;8.97;100.00;101367.46;3503322;82;99115;-94
2022/10/27 04:43:17;;;;;;;24.25;16.85;;;;;;;8.93;100.00;101379.70;3453902;84;34884;-95
2022/10/27 04:48:18;;;;;;;25.80;15.28;;;;;;;8.88;100.00;101372.28;3469146;83;98854;-95
2022/10/27 04:53:19;;;;;;;23.47;14.87;;;;;;;8.84;100.00;101374.10;3477221;83;27284;-95
2022/10/27 04:58:20;;;;;;;27.52;15.95;;;;;;;8.81;100.00;101374.77;3503583;82;99021;-95
2022/10/27 05:03:21;;;;;;;41.93;17.57;;;;;;;8.76;100.00;101381.30;3507538;82;32449;-95
2022/10/27 05:08:22;;;;;;;28.30;18.17;;;;;;;8.72;100.00;101383.12;3502995;82;98716;-94
2022/10/27 05:13:23;;;;;;;28.70;18.27;;;;;;;8.68;100.00;101388.27;3503570;82;32625;-93
2022/10/27 05:18:23;;;;;;;29.37;18.47;;;;;;;8.65;100.00;101403.47;3504066;82;98935;-94
2022/10/27 05:23:25;;;;;;;35.17;19.63;;;;;;;8.61;100.00;101402.53;3514417;82;32453;-94
2022/10/27 05:28:26;;;;;;;31.57;18.67;;;;;;;8.59;100.00;101417.73;3506996;82;99004;-94
2022/10/27 05:33:27;;;;;;;36.20;20.77;;;;;;;8.55;100.00;101432.70;3515056;82;32420;-88
2022/10/27 05:38:28;;;;;;;35.98;21.05;;;;;;;8.48;100.00;101422.86;3508291;82;99198;-88
2022/10/27 05:43:29;;;;;;;33.13;19.00;;;;;;;8.45;100.00;101420.00;3509314;82;27598;-88
2022/10/27 05:48:29;;;;;;;31.40;18.53;;;;;;;8.41;100.00;101417.11;3500099;82;99030;-89
2022/10/27 05:53:30;;;;;;;30.37;19.30;;;;;;;8.39;100.00;101426.25;3513367;82;26275;-89
2022/10/27 05:58:31;;;;;;;36.20;20.07;;;;;;;8.38;100.00;101432.89;3498693;82;99045;-88
2022/10/27 06:03:32;;;;;;;30.87;18.97;;;;;;;8.37;100.00;101439.52;3503492;82;25970;-88
2022/10/27 06:08:32;;;;;;;34.27;20.77;;;;;;;8.34;100.00;101440.18;3503225;82;99097;-89
2022/10/27 06:13:33;;;;;;;35.60;22.47;;;;;;;8.34;100.00;101453.11;3502125;82;26593;-89
2022/10/27 06:18:34;;;;;;;32.10;20.20;;;;;;;8.29;100.00;101454.10;3502138;82;99241;-89
2022/10/27 06:23:36;;;;;;;30.10;19.97;;;;;;;8.27;100.00;101457.77;3480973;82;45100;-89
2022/10/27 06:28:37;;;;;;;35.58;20.55;;;;;;;8.27;100.00;101460.50;3504623;82;99047;-89
2022/10/27 06:33:38;;;;;;;31.27;20.47;;;;;;;8.27;100.00;101465.98;3498791;83;33804;-89
2022/10/27 06:38:39;;;;;;;28.93;17.70;;;;;;;8.28;100.00;101475.81;3494516;83;99041;-89
2022/10/27 06:43:39;;;;;;;26.47;18.63;;;;;;;8.27;100.00;101489.30;3500663;83;33684;-89
2022/10/27 06:48:40;;;;;;;26.75;17.55;;;;;;;8.30;100.00;101491.36;3496099;83;99119;-90
2022/10/27 06:53:41;;;;;;;29.10;18.10;;;;;;;8.31;100.00;101493.54;3497922;83;33821;-90
2022/10/27 06:58:42;;;;;;;28.47;16.67;;;;;;;8.34;100.00;101491.52;3494236;83;98750;-90
2022/10/27 07:03:43;;;;;;;54.75;37.23;;;;;;;8.37;100.00;101497.68;3495368;83;33231;-89
2022/10/27 07:08:44;;;;;;;53.53;36.43;;;;;;;8.43;100.00;101494.41;3495207;83;99122;-90
2022/10/27 07:13:44;;;;;;;37.80;23.03;;;;;;;8.54;100.00;101498.33;3502017;83;31575;-89
2022/10/27 07:18:45;;;;;;;43.03;27.80;;;;;;;8.71;100.00;101501.46;3498282;83;99088;-90
2022/10/27 07:23:46;;;;;;;44.77;24.30;;;;;;;8.88;100.00;101510.92;3500428;83;31655;-89
2022/10/27 07:28:47;;;;;;;39.20;24.53;;;;;;;9.07;100.00;101529.02;3496237;83;99105;-89
2022/10/27 07:33:47;;;;;;;38.43;24.63;;;;;;;9.25;100.00;101539.48;3477710;84;31695;-88
2022/10/27 07:38:48;;;;;;;43.20;24.00;;;;;;;9.43;100.00;101543.61;3472600;84;99115;-90
2022/10/27 07:43:49;;;;;;;43.45;24.10;;;;;;;9.64;100.00;101540.75;3481605;84;31732;-90
2022/10/27 07:48:50;;;;;;;43.27;24.50;;;;;;;9.85;100.00;101548.30;3472627;84;99101;-91
2022/10/27 07:53:51;;;;;;;41.27;25.77;;;;;;;10.08;100.00;101562.64;3480359;84;25927;-90
2022/10/27 07:58:51;;;;;;;40.77;23.57;;;;;;;10.31;100.00;101564.33;3472631;84;99312;-90
2022/10/27 08:03:52;;;;;;;40.93;23.40;;;;;;;10.52;100.00;101563.00;3478844;84;34879;-92
2022/10/27 08:08:53;;;;;;;35.80;21.57;;;;;;;10.79;100.00;101573.81;3479266;84;99343;-89
2022/10/27 08:13:54;;;;;;;31.50;19.87;;;;;;;11.04;100.00;101567.84;3475450;84;35110;-90
2022/10/27 08:18:54;;;;;;;38.80;21.00;;;;;;;11.31;100.00;101571.69;3472982;84;99425;-90
2022/10/27 08:23:55;;;;;;;34.50;19.35;;;;;;;11.58;100.00;101559.22;3475338;84;34922;-91
2022/10/27 08:28:56;;;;;;;29.50;20.43;;;;;;;11.95;100.00;101554.23;3470620;84;99032;-92
2022/10/27 08:33:57;;;;;;;28.63;19.33;;;;;;;12.35;100.00;101558.87;3510685;82;30762;-93
2022/10/27 08:38:57;;;;;;;28.53;17.80;;;;;;;12.80;100.00;101557.08;3505926;82;99049;-91
2022/10/27 08:44:16;;;;;;;30.67;19.57;;;;;;;13.30;100.00;101558.26;3510576;82;26556;-91
2022/10/27 08:49:37;;;;;;;30.70;18.17;;;;;;;14.03;100.00;101559.28;3509174;82;99343;-92
2022/10/27 08:54:43;;;;;;;23.67;15.93;;;;;;;14.76;100.00;101567.81;3510686;82;35571;-92
2022/10/27 08:59:44;;;;;;;25.37;15.60;;;;;;;15.53;100.00;101572.86;3503730;82;99240;-91
2022/10/27 09:05:08;;;;;;;23.47;13.60;;;;;;;16.32;100.00;101576.63;3510268;82;32087;-91
2022/10/27 09:10:42;;;;;;;21.73;12.65;;;;;;;16.98;100.00;101584.52;3491595;82;99163;-92
2022/10/27 09:15:53;;;;;;;19.57;11.63;;;;;;;17.65;100.00;101579.94;3509432;82;35779;-91
2022/10/27 09:20:57;;;;;;;19.23;12.20;;;;;;;18.12;100.00;101587.86;3474765;83;99307;-91
2022/10/27 09:25:58;;;;;;;19.75;11.50;;;;;;;18.57;100.00;101589.19;3509131;82;35428;-90
2022/10/27 09:31:02;;;;;;;20.08;11.85;;;;;;;18.86;100.00;101589.88;3502951;82;98998;-92
2022/10/27 09:36:13;;;;;;;18.77;10.68;;;;;;;19.05;100.00;101584.61;3500333;83;34938;-92
2022/10/27 09:41:15;;;;;;;14.13;9.40;;;;;;;19.19;100.00;101594.91;3501197;83;35447;-91
2022/10/27 09:46:26;;;;;;;19.77;10.27;;;;;;;19.49;100.00;101599.32;3495834;83;99182;-93
2022/10/27 09:51:49;;;;;;;23.25;10.65;;;;;;;19.87;100.00;101599.63;3499744;83;34874;-93
2022/10/27 09:56:50;;;;;;;26.95;13.22;;;;;;;19.99;97.88;101599.93;3493538;83;99375;-94
2022/10/27 10:01:58;;;;;;;18.45;10.93;;;;;;;20.18;98.03;101604.19;3475909;83;35071;-94
2022/10/27 10:07:04;;;;;;;17.30;10.15;;;;;;;20.08;94.69;101602.27;3487545;83;99121;-91
2022/10/27 10:12:25;;;;;;;18.07;9.18;;;;;;;19.96;93.26;101605.55;3498002;83;34862;-87
2022/10/27 10:17:27;;;;;;;17.07;9.43;;;;;;;19.98;93.43;101608.12;3464956;84;98651;-87
2022/10/27 10:22:31;;;;;;;15.90;8.73;;;;;;;19.97;91.88;101614.13;3475897;83;35443;-87
2022/10/27 10:27:34;;;;;;;15.98;8.93;;;;;;;20.01;91.59;101608.69;3486710;83;99548;-87
2022/10/27 10:32:37;;;;;;;19.87;9.28;;;;;;;20.01;89.12;101609.30;3506989;82;34950;-90
2022/10/27 10:37:45;;;;;;;15.85;9.38;;;;;;;19.88;89.74;101609.59;3507046;82;99003;-91
2022/10/27 10:42:52;;;;;;;13.45;7.72;;;;;;;19.80;89.25;101601.90;3512197;82;34826;-89
2022/10/27 10:48:15;;;;;;;17.57;8.53;;;;;;;19.78;89.16;101597.93;3506343;82;98757;-90
2022/10/27 10:53:27;;;;;;;16.40;8.53;;;;;;;19.66;88.74;101600.59;3512310;82;34838;-89
2022/10/27 10:58:31;;;;;;;16.37;8.30;;;;;;;19.62;88.39;101599.83;3502933;82;98938;-90
2022/10/27 11:03:38;;;;;;;16.10;8.78;;;;;;;19.58;88.68;101602.45;3512152;82;34850;-93
2022/10/27 11:08:41;;;;;;;14.95;8.55;;;;;;;19.53;88.76;101604.28;3504658;82;99310;-89
2022/10/27 11:14:06;;;;;;;18.02;9.93;;;;;;;19.57;89.46;101608.63;3484775;83;34851;-91
2022/10/27 11:19:14;;;;;;;15.48;8.83;;;;;;;19.48;87.92;101606.92;3465974;83;99124;-91
2022/10/27 11:24:19;;;;;;;17.12;9.40;;;;;;;19.32;88.29;101600.23;3507020;82;34966;-91
2022/10/27 11:29:28;;;;;;;17.37;8.83;;;;;;;19.28;88.37;101600.84;3499430;81;99062;-91
2022/10/27 11:34:50;;;;;;;16.80;9.20;;;;;;;19.21;88.50;101599.47;3482264;84;34871;-92
2022/10/27 11:40:21;;;;;;;18.55;10.48;;;;;;;19.16;88.57;101599.30;3469161;84;99158;-90
2022/10/27 11:45:29;;;;;;;17.25;8.93;;;;;;;19.18;88.53;101601.08;3475550;84;35614;-89
2022/10/27 11:50:41;;;;;;;15.95;9.85;;;;;;;19.11;88.58;101599.72;3452939;84;98984;-88
2022/10/27 11:56:10;;;;;;;22.13;12.60;;;;;;;19.08;88.47;101601.14;3466939;84;34877;-91
2022/10/27 12:01:30;;;;;;;17.92;10.80;;;;;;;19.03;88.28;101598.77;3470334;84;34833;-89
2022/10/27 12:06:48;;;;;;;20.15;10.13;;;;;;;19.00;89.67;101596.19;3473981;84;99389;-89
2022/10/27 12:12:15;;;;;;;21.25;12.10;;;;;;;19.05;89.76;101602.75;3479003;84;35419;-91
2022/10/27 12:17:34;;;;;;;19.82;11.15;;;;;;;19.04;89.51;101603.14;3474451;84;99369;-90
2022/10/27 12:23:00;;;;;;;18.90;11.50;;;;;;;19.01;89.15;101607.54;3474072;84;36023;-90
2022/10/27 12:28:06;;;;;;;21.15;12.85;;;;;;;18.95;89.48;101605.56;3468947;84;99442;-90
2022/10/27 12:33:28;;;;;;;23.38;12.70;;;;;;;18.91;90.23;101597.84;3494779;82;26283;-91
2022/10/27 12:38:38;;;;;;;21.25;12.93;;;;;;;18.85;90.21;101601.62;3506217;82;99127;-90
2022/10/27 12:44:11;;;;;;;20.37;12.95;;;;;;;18.80;90.23;101604.84;3498879;83;34870;-92
2022/10/27 12:49:53;;;;;;;25.35;14.75;;;;;;;18.77;90.19;101597.88;3497496;83;99493;-91
2022/10/27 12:55:34;;;;;;;26.27;14.10;;;;;;;18.71;90.58;101598.10;3448040;83;34828;-92
2022/10/27 13:00:55;;;;;;;21.33;14.25;;;;;;;18.69;90.78;101600.52;3459556;83;99250;-90
2022/10/27 13:06:14;;;;;;;21.77;14.65;;;;;;;18.65;91.41;101592.13;3500092;83;34906;-90
2022/10/27 13:11:52;;;;;;;22.95;14.75;;;;;;;18.68;91.73;101588.55;3495245;83;34834;-91
2022/10/27 13:17:19;;;;;;;27.90;16.32;;;;;;;18.69;91.92;101578.98;3494451;83;99196;-90
2022/10/27 13:22:35;;;;;;;25.97;16.12;;;;;;;18.63;91.18;101585.39;3496199;83;35115;-90
2022/10/27 13:27:47;;;;;;;26.52;16.65;;;;;;;18.59;91.60;101579.80;3490166;83;99445;-90
2022/10/27 13:32:54;;;;;;;25.92;15.38;;;;;;;18.58;91.23;101581.01;3485034;83;35463;-91
2022/10/27 13:38:12;;;;;;;24.75;15.20;;;;;;;18.55;91.72;101584.62;3450311;83;99133;-89
2022/10/27 13:43:24;;;;;;;22.75;12.95;;;;;;;18.51;91.56;101585.22;3451715;84;34858;-89
2022/10/27 13:48:32;;;;;;;27.02;14.55;;;;;;;18.51;91.64;101579.64;3442945;84;99285;-91
2022/10/27 13:53:34;;;;;;;22.77;14.83;;;;;;;18.49;91.91;101573.69;3456671;84;34851;-92
2022/10/27 13:59:13;;;;;;;24.30;15.32;;;;;;;18.49;91.92;101582.05;3428887;84;99394;-90
2022/10/27 14:04:41;;;;;;;22.95;14.63;;;;;;;18.46;91.84;101568.09;3451041;84;34901;-91
2022/10/27 14:09:45;;;;;;;20.62;11.28;;;;;;;18.42;91.87;101575.70;3449931;84;99126;-89
2022/10/27 14:14:51;;;;;;;23.05;14.10;;;;;;;18.33;92.03;101572.52;3450410;84;34840;-90
2022/10/27 14:20:09;;;;;;;18.37;12.33;;;;;;;18.27;92.07;101575.49;3453005;84;98971;-90
2022/10/27 14:25:28;;;;;;;20.68;14.15;;;;;;;18.16;92.43;101578.28;3458445;84;34875;-90
2022/10/27 14:30:30;;;;;;;19.35;11.33;;;;;;;18.07;93.00;101584.08;3447075;84;98968;-89
2022/10/27 14:35:31;;;;;;;18.67;11.60;;;;;;;18.01;92.94;101589.85;3428414;84;34375;-89
2022/10/27 14:40:38;;;;;;;16.45;11.33;;;;;;;17.94;93.31;101584.30;3437251;84;99034;-88
2022/10/27 14:45:41;;;;;;;21.00;12.50;;;;;;;17.85;93.46;101594.45;3437085;84;35175;-89
2022/10/27 14:50:42;;;;;;;19.77;11.85;;;;;;;17.74;93.89;101588.66;3435835;84;99108;-90
2022/10/27 14:55:43;;;;;;;17.77;10.20;;;;;;;17.63;94.17;101581.72;3444236;84;33387;-90
2022/10/27 15:00:50;;;;;;;16.40;10.85;;;;;;;17.54;94.33;101583.30;3434498;84;99004;-89
2022/10/27 15:05:51;;;;;;;17.23;10.58;;;;;;;17.42;94.68;101573.33;3446045;84;34812;-90
2022/10/27 15:10:57;;;;;;;17.30;10.78;;;;;;;17.32;94.97;101580.23;3434472;84;99044;-86
2022/10/27 15:16:03;;;;;;;18.12;11.48;;;;;;;17.20;95.19;101569.48;3438357;84;25888;-87
2022/10/27 15:21:11;;;;;;;21.10;12.63;;;;;;;17.04;95.48;101570.42;3421963;84;98962;-87
2022/10/27 15:26:16;;;;;;;17.75;10.95;;;;;;;16.94;95.74;101574.77;3459263;85;99068;-86
2022/10/27 15:31:17;;;;;;;22.13;12.20;;;;;;;16.76;96.01;101565.58;3470343;84;26813;-87
2022/10/27 15:36:23;;;;;;;17.75;11.55;;;;;;;16.61;96.35;101570.05;3510620;82;99273;-87
2022/10/27 15:41:27;;;;;;;20.90;13.15;;;;;;;16.44;96.59;101565.21;3523497;82;25803;-88
2022/10/27 15:46:33;;;;;;;18.98;10.58;;;;;;;16.29;97.01;101570.47;3516900;82;99196;-88
2022/10/27 15:51:48;;;;;;;22.40;12.37;;;;;;;16.11;97.00;101570.36;3520762;82;34844;-88
2022/10/27 15:56:54;;;;;;;22.67;13.60;;;;;;;15.95;97.45;101571.81;3515741;82;99140;-88
2022/10/27 16:02:02;;;;;;;21.62;13.08;;;;;;;15.81;97.87;101573.10;3525685;82;25924;-89
2022/10/27 16:07:22;;;;;;;26.37;15.63;;;;;;;15.65;97.94;101573.95;3489223;82;98919;-90
2022/10/27 16:12:35;;;;;;;23.18;16.17;;;;;;;15.50;98.12;101574.43;3526697;82;34866;-90
2022/10/27 16:17:46;;;;;;;23.67;13.35;;;;;;;15.34;98.49;101579.42;3502757;82;99234;-90
2022/10/27 16:22:48;;;;;;;20.23;13.08;;;;;;;15.21;99.03;101577.27;3514583;82;34865;-90
2022/10/27 16:27:49;;;;;;;24.00;13.98;;;;;;;15.08;99.04;101585.05;3507577;82;99167;-90
2022/10/27 16:32:55;;;;;;;20.23;13.80;;;;;;;14.94;99.29;101586.87;3519066;82;32989;-90
2022/10/27 16:37:58;;;;;;;21.62;12.13;;;;;;;14.81;99.52;101583.54;3482036;82;99203;-91
2022/10/27 16:43:02;;;;;;;22.70;13.78;;;;;;;14.70;99.83;101576.26;3515483;82;34852;-90
2022/10/27 16:48:03;;;;;;;24.98;13.55;;;;;;;14.58;100.00;101579.27;3511863;82;99428;-90
2022/10/27 16:53:04;;;;;;;23.10;14.30;;;;;;;14.46;100.00;101588.64;3511485;82;31632;-90
2022/10/27 16:58:04;;;;;;;25.50;15.90;;;;;;;14.33;100.00;101580.93;3505936;82;99030;-90
2022/10/27 17:03:05;;;;;;;25.45;14.93;;;;;;;14.23;100.00;101587.11;3517852;82;31987;-90
2022/10/27 17:08:06;;;;;;;23.98;14.75;;;;;;;14.11;100.00;101586.69;3510841;82;99498;-89
2022/10/27 17:13:07;;;;;;;30.13;18.60;;;;;;;14.02;100.00;101592.29;3516651;82;26687;-90
2022/10/27 17:18:08;;;;;;;26.70;17.83;;;;;;;13.93;100.00;101589.78;3508043;82;99460;-90
2022/10/27 17:23:10;;;;;;;29.63;21.43;;;;;;;13.82;100.00;101594.34;3522645;82;32473;-91
2022/10/27 17:28:11;;;;;;;32.63;21.50;;;;;;;13.72;100.00;101596.34;3512823;82;99489;-92
2022/10/27 17:33:12;;;;;;;37.92;24.94;;;;;;;13.64;100.00;101598.80;3520005;82;26272;-91
2022/10/27 17:38:13;;;;;;;41.10;25.87;;;;;;;13.56;100.00;101585.18;3480244;83;99214;-90
2022/10/27 17:43:14;;;;;;;40.60;26.90;;;;;;;13.48;100.00;101587.05;3489213;83;33083;-91
2022/10/27 17:48:14;;;;;;;37.75;25.12;;;;;;;13.37;100.00;101584.67;3482898;83;99478;-91
2022/10/27 17:53:15;;;;;;;41.27;23.30;;;;;;;13.31;100.00;101588.11;3499685;83;27732;-91
2022/10/27 17:58:16;;;;;;;38.13;24.37;;;;;;;13.24;100.00;101583.23;3487236;83;99095;-91
2022/10/27 18:03:17;;;;;;;36.57;22.83;;;;;;;13.19;100.00;101586.30;3491998;83;25827;-90
2022/10/27 18:08:18;;;;;;;41.77;27.50;;;;;;;13.14;100.00;101583.83;3489101;83;99454;-90
2022/10/27 18:13:19;;;;;;;41.57;30.03;;;;;;;13.07;100.00;101584.27;3494074;83;25980;-93
2022/10/27 18:18:20;;;;;;;42.73;27.23;;;;;;;12.99;100.00;101576.45;3487741;83;99512;-92
2022/10/27 18:23:21;;;;;;;31.93;23.77;;;;;;;12.93;100.00;101576.47;3492594;83;26378;-92
2022/10/27 18:28:22;;;;;;;39.07;26.43;;;;;;;12.86;100.00;101572.20;3486502;83;99545;-93
2022/10/27 18:33:23;;;;;;;36.73;24.77;;;;;;;12.78;100.00;101570.47;3486850;83;25989;-92
2022/10/27 18:38:24;;;;;;;43.33;23.80;;;;;;;12.72;100.00;101576.64;3412539;85;99448;-91
2022/10/27 18:43:24;;;;;;;36.07;23.70;;;;;;;12.66;100.00;101584.43;3411333;85;33167;-91
2022/10/27 18:48:26;;;;;;;38.40;22.70;;;;;;;12.61;100.00;101581.95;3469777;83;99476;-93
2022/10/27 18:53:27;;;;;;;40.23;23.97;;;;;;;12.56;100.00;101582.81;3472833;84;33323;-92
2022/10/27 18:58:29;;;;;;;39.80;25.50;;;;;;;12.49;100.00;101588.97;3465081;84;99135;-94
2022/10/27 19:03:29;;;;;;;39.40;25.13;;;;;;;12.43;100.00;101589.64;3412573;85;33936;-94
2022/10/27 19:08:31;;;;;;;39.87;24.30;;;;;;;12.37;100.00;101584.97;3406589;83;99053;-94
2022/10/27 19:13:37;;;;;;;40.93;26.13;;;;;;;12.31;100.00;101580.89;3411565;85;33239;-94
2022/10/27 19:18:37;;;;;;;41.53;26.87;;;;;;;12.24;100.00;101586.83;3406900;85;99224;-92
2022/10/27 19:23:38;;;;;;;42.60;27.82;;;;;;;12.20;100.00;101582.61;3413090;85;26088;-93
2022/10/27 19:28:41;;;;;;;41.53;27.57;;;;;;;12.13;100.00;101582.45;3402871;85;99189;-93
2022/10/27 19:33:42;;;;;;;39.23;27.67;;;;;;;12.06;100.00;101579.55;3405628;85;26336;-92
2022/10/27 19:38:43;;;;;;;39.20;26.30;;;;;;;12.03;100.00;101574.73;3437143;84;99421;-92
2022/10/27 19:43:45;;;;;;;44.57;29.07;;;;;;;12.00;100.00;101578.79;3441477;84;33464;-93
2022/10/27 19:48:51;;;;;;;44.53;28.83;;;;;;;11.97;100.00;101581.69;3436187;83;99068;-92
2022/10/27 19:53:55;;;;;;;40.25;26.77;;;;;;;11.93;100.00;101569.75;3438555;84;25856;-93
2022/10/27 19:58:56;;;;;;;41.35;28.52;;;;;;;11.89;100.00;101576.36;3432516;84;99421;-90
2022/10/27 20:04:03;;;;;;;47.77;29.77;;;;;;;11.85;100.00;101587.31;3443113;84;26014;-92
2022/10/27 20:09:05;;;;;;;41.90;29.07;;;;;;;11.80;100.00;101577.11;3430525;84;99870;-92
2022/10/27 20:14:06;;;;;;;49.90;29.70;;;;;;;11.76;100.00;101585.30;3439291;84;26002;-91
2022/10/27 20:19:15;;;;;;;38.50;27.63;;;;;;;11.70;100.00;101579.84;3437574;84;99391;-90
2022/10/27 20:24:16;;;;;;;40.05;28.12;;;;;;;11.67;100.00;101572.86;3434704;84;25868;-91
2022/10/27 20:29:18;;;;;;;44.40;29.60;;;;;;;11.62;100.00;101568.39;3427833;84;99109;-90
2022/10/27 20:34:19;;;;;;;40.43;27.83;;;;;;;11.59;100.00;101569.69;3441575;84;26334;-90
2022/10/27 20:39:21;;;;;;;36.13;25.17;;;;;;;11.54;100.00;101558.89;3447921;83;99372;-91
2022/10/27 20:44:22;;;;;;;41.70;27.63;;;;;;;11.50;100.00;101552.52;3454347;84;26671;-90
2022/10/27 20:49:23;;;;;;;44.20;27.27;;;;;;;11.49;100.00;101552.27;3449024;84;99349;-91
2022/10/27 20:54:24;;;;;;;40.40;27.23;;;;;;;11.44;100.00;101558.07;3456788;84;33758;-92
2022/10/27 20:59:24;;;;;;;49.00;28.17;;;;;;;11.38;100.00;101556.14;3454709;84;99459;-92
2022/10/27 21:04:25;;;;;;;48.40;31.33;;;;;;;11.32;100.00;101553.43;3524040;82;33737;-91
2022/10/27 21:09:26;;;;;;;50.40;33.50;;;;;;;11.31;100.00;101553.21;3493068;82;99369;-92
2022/10/27 21:14:27;;;;;;;44.87;30.90;;;;;;;11.28;100.00;101547.61;3530333;82;33198;-92
2022/10/27 21:19:27;;;;;;;47.70;31.35;;;;;;;11.25;100.00;101546.37;3510732;82;99424;-91
2022/10/27 21:24:28;;;;;;;43.97;28.40;;;;;;;11.23;100.00;101547.28;3456070;84;31613;-92
2022/10/27 21:29:30;;;;;;;40.53;27.67;;;;;;;11.22;100.00;101544.87;3455003;84;99407;-93
2022/10/27 21:34:31;;;;;;;40.50;28.17;;;;;;;11.18;100.00;101545.37;3515559;82;31686;-92
2022/10/27 21:39:31;;;;;;;41.63;27.10;;;;;;;11.15;100.00;101548.27;3467413;83;99205;-92
2022/10/27 21:44:32;;;;;;;37.97;24.90;;;;;;;11.12;100.00;101539.91;3506223;82;31649;-93
2022/10/27 21:49:33;;;;;;;40.23;25.50;;;;;;;11.08;100.00;101535.69;3504266;82;99015;-93
2022/10/27 21:54:34;;;;;;;39.60;26.43;;;;;;;11.06;100.00;101531.08;3502886;82;32608;-91
2022/10/27 21:59:34;;;;;;;51.80;32.57;;;;;;;11.04;100.00;101536.72;3505842;82;99220;-91
2022/10/27 22:04:35;;;;;;;51.20;31.97;;;;;;;11.05;100.00;101537.75;3484432;83;32327;-91
2022/10/27 22:09:36;;;;;;;46.70;28.63;;;;;;;11.03;100.00;101526.86;3510405;82;99010;-91
2022/10/27 22:14:38;;;;;;;48.60;29.50;;;;;;;11.01;100.00;101514.03;3515173;82;26463;-91
2022/10/27 22:19:39;;;;;;;45.67;30.37;;;;;;;10.97;100.00;101509.78;3499780;82;99585;-92
2022/10/27 22:24:40;;;;;;;40.20;29.90;;;;;;;10.95;100.00;101509.94;3510266;82;26538;-92
2022/10/27 22:29:43;;;;;;;47.17;29.73;;;;;;;10.95;100.00;101512.69;3502698;82;98932;-92
2022/10/27 22:34:43;;;;;;;43.78;28.83;;;;;;;10.91;100.00;101500.77;3506567;82;31765;-91
2022/10/27 22:39:44;;;;;;;38.90;27.07;;;;;;;10.88;100.00;101495.95;3470497;84;98897;-92
2022/10/27 22:44:46;;;;;;;40.30;28.60;;;;;;;10.86;100.00;101488.63;3477573;84;30124;-92
2022/10/27 22:49:47;;;;;;;41.53;29.40;;;;;;;10.84;100.00;101486.22;3474289;83;99262;-93
2022/10/27 22:54:48;;;;;;;43.73;30.17;;;;;;;10.81;100.00;101490.27;3470497;84;25825;-92
2022/10/27 22:59:48;;;;;;;41.07;26.67;;;;;;;10.80;100.00;101479.03;3472777;82;99246;-93
2022/10/27 23:04:49;;;;;;;41.23;26.37;;;;;;;10.80;100.00;101473.52;3479927;84;34918;-92